sensor_id;sensor_type;location;lat;lon;timestamp;pressure;altitude;pressure_sealevel;temperature;humidity
38939;BME280;24211;49.980;19.776;2022-10-31T00:03:50;99717.41;;;11.15;100.00
38939;BME280;24211;49.980;19.776;2022-10-31T00:06:17;99717.00;;;11.11;100.00
38939;BME280;24211;49.980;19.776;2022-10-31T00:08:46;99719.53;;;11.06;100.00
38939;BME280;24211;49.980;19.776;2022-10-31T00:11:14;99719.16;;;11.03;100.00
38939;BME280;24211;49.980;19.776;2022-10-31T00:13:41;99721.19;;;11.01;100.00
38939;BME280;24211;49.980;19.776;2022-10-31T00:16:25;99725.34;;;10.97;100.00
38939;BME280;24211;49.980;19.776;2022-10-31T00:18:56;99726.25;;;10.91;100.00
38939;BME280;24211;49.980;19.776;2022-10-31T00:21:25;99729.34;;;10.88;100.00
38939;BME280;24211;49.980;19.776;2022-10-31T00:23:52;99726.66;;;10.88;100.00
38939;BME280;24211;49.980;19.776;2022-10-31T00:26:20;99719.66;;;10.87;100.00
38939;BME280;24211;49.980;19.776;2022-10-31T00:28:47;99723.59;;;10.84;100.00
38939;BME280;24211;49.980;19.776;2022-10-31T00:31:15;99731.84;;;10.83;100.00
38939;BME280;24211;49.980;19.776;2022-10-31T00:33:43;99726.31;;;10.78;100.00
38939;BME280;24211;49.980;19.776;2022-10-31T00:36:14;99725.50;;;10.77;100.00
38939;BME280;24211;49.980;19.776;2022-10-31T00:38:43;99724.66;;;10.77;100.00
38939;BME280;24211;49.980;19.776;2022-10-31T00:41:12;99730.66;;;10.72;100.00
38939;BME280;24211;49.980;19.776;2022-10-31T00:43:42;99741.78;;;10.69;100.00
38939;BME280;24211;49.980;19.776;2022-10-31T00:46:11;99730.50;;;10.67;100.00
38939;BME280;24211;49.980;19.776;2022-10-31T00:48:38;99734.41;;;10.65;100.00
38939;BME280;24211;49.980;19.776;2022-10-31T00:51:06;99733.81;;;10.63;100.00
38939;BME280;24211;49.980;19.776;2022-10-31T00:53:34;99735.88;;;10.61;100.00
38939;BME280;24211;49.980;19.776;2022-10-31T00:56:02;99736.72;;;10.55;100.00
38939;BME280;24211;49.980;19.776;2022-10-31T00:58:30;99740.44;;;10.54;100.00
38939;BME280;24211;49.980;19.776;2022-10-31T01:04:37;99738.63;;;10.47;100.00
38939;BME280;24211;49.980;19.776;2022-10-31T01:07:04;99746.69;;;10.41;100.00
38939;BME280;24211;49.980;19.776;2022-10-31T01:09:31;99746.88;;;10.39;100.00
38939;BME280;24211;49.980;19.776;2022-10-31T01:11:59;99737.66;;;10.35;100.00
38939;BME280;24211;49.980;19.776;2022-10-31T01:14:26;99739.72;;;10.33;100.00
38939;BME280;24211;49.980;19.776;2022-10-31T01:16:56;99734.81;;;10.30;100.00
38939;BME280;24211;49.980;19.776;2022-10-31T01:19:23;99740.56;;;10.27;100.00
38939;BME280;24211;49.980;19.776;2022-10-31T01:21:55;99744.28;;;10.26;100.00
38939;BME280;24211;49.980;19.776;2022-10-31T01:24:22;99740.38;;;10.22;100.00
38939;BME280;24211;49.980;19.776;2022-10-31T01:26:49;99741.00;;;10.18;100.00
38939;BME280;24211;49.980;19.776;2022-10-31T01:29:16;99737.34;;;10.12;100.00
38939;BME280;24211;49.980;19.776;2022-10-31T01:31:44;99729.13;;;10.07;100.00
38939;BME280;24211;49.980;19.776;2022-10-31T01:34:14;99729.53;;;10.04;100.00
38939;BME280;24211;49.980;19.776;2022-10-31T01:36:43;99735.91;;;10.03;100.00
38939;BME280;24211;49.980;19.776;2022-10-31T01:39:14;99730.97;;;10.00;100.00
38939;BME280;24211;49.980;19.776;2022-10-31T01:41:45;99735.31;;;10.01;100.00
38939;BME280;24211;49.980;19.776;2022-10-31T01:47:00;99730.78;;;9.95;100.00
38939;BME280;24211;49.980;19.776;2022-10-31T01:49:43;99730.41;;;9.92;100.00
38939;BME280;24211;49.980;19.776;2022-10-31T01:52:39;99726.31;;;9.89;100.00
38939;BME280;24211;49.980;19.776;2022-10-31T01:55:15;99723.03;;;9.87;100.00
38939;BME280;24211;49.980;19.776;2022-10-31T01:57:48;99730.00;;;9.88;100.00
38939;BME280;24211;49.980;19.776;2022-10-31T02:00:20;99727.78;;;9.85;100.00
38939;BME280;24211;49.980;19.776;2022-10-31T02:02:49;99731.69;;;9.82;100.00
38939;BME280;24211;49.980;19.776;2022-10-31T02:05:24;99732.91;;;9.80;100.00
38939;BME280;24211;49.980;19.776;2022-10-31T02:07:56;99737.44;;;9.79;100.00
38939;BME280;24211;49.980;19.776;2022-10-31T02:10:31;99731.66;;;9.76;100.00
38939;BME280;24211;49.980;19.776;2022-10-31T02:13:05;99729.41;;;9.73;100.00
38939;BME280;24211;49.980;19.776;2022-10-31T02:15:38;99728.81;;;9.71;100.00
38939;BME280;24211;49.980;19.776;2022-10-31T02:18:08;99727.19;;;9.70;100.00
38939;BME280;24211;49.980;19.776;2022-10-31T02:23:44;99728.84;;;9.64;100.00
38939;BME280;24211;49.980;19.776;2022-10-31T02:32:08;99735.00;;;9.65;100.00
38939;BME280;24211;49.980;19.776;2022-10-31T02:44:20;99739.94;;;9.55;100.00
38939;BME280;24211;49.980;19.776;2022-10-31T02:46:58;99752.22;;;9.56;100.00
38939;BME280;24211;49.980;19.776;2022-10-31T02:52:26;99744.88;;;9.58;100.00
38939;BME280;24211;49.980;19.776;2022-10-31T02:58:14;99749.38;;;9.57;100.00
38939;BME280;24211;49.980;19.776;2022-10-31T03:06:25;99751.00;;;9.52;100.00
38939;BME280;24211;49.980;19.776;2022-10-31T03:12:07;99761.31;;;9.48;100.00
38939;BME280;24211;49.980;19.776;2022-10-31T03:14:43;99758.63;;;9.48;100.00
38939;BME280;24211;49.980;19.776;2022-10-31T03:17:33;99768.47;;;9.48;100.00
38939;BME280;24211;49.980;19.776;2022-10-31T03:20:06;99763.75;;;9.50;100.00
38939;BME280;24211;49.980;19.776;2022-10-31T03:22:39;99760.47;;;9.48;100.00
38939;BME280;24211;49.980;19.776;2022-10-31T03:25:09;99771.13;;;9.48;100.00
38939;BME280;24211;49.980;19.776;2022-10-31T03:27:38;99765.19;;;9.46;100.00
38939;BME280;24211;49.980;19.776;2022-10-31T03:30:08;99769.09;;;9.43;100.00
38939;BME280;24211;49.980;19.776;2022-10-31T03:32:54;99771.94;;;9.42;100.00
38939;BME280;24211;49.980;19.776;2022-10-31T03:35:26;99771.94;;;9.42;100.00
38939;BME280;24211;49.980;19.776;2022-10-31T03:37:56;99768.28;;;9.43;100.00
38939;BME280;24211;49.980;19.776;2022-10-31T03:40:36;99768.28;;;9.43;100.00
38939;BME280;24211;49.980;19.776;2022-10-31T03:43:13;99768.28;;;9.43;100.00
38939;BME280;24211;49.980;19.776;2022-10-31T03:45:46;99767.22;;;9.44;100.00
38939;BME280;24211;49.980;19.776;2022-10-31T03:48:18;99765.59;;;9.43;100.00
38939;BME280;24211;49.980;19.776;2022-10-31T03:51:22;99778.53;;;9.39;100.00
38939;BME280;24211;49.980;19.776;2022-10-31T03:54:13;99763.75;;;9.37;100.00
38939;BME280;24211;49.980;19.776;2022-10-31T03:56:53;99776.47;;;9.35;100.00
38939;BME280;24211;49.980;19.776;2022-10-31T03:59:39;99765.19;;;9.33;100.00
38939;BME280;24211;49.980;19.776;2022-10-31T04:02:15;99767.25;;;9.31;100.00
38939;BME280;24211;49.980;19.776;2022-10-31T04:04:46;99771.97;;;9.29;100.00
38939;BME280;24211;49.980;19.776;2022-10-31T04:07:17;99774.44;;;9.24;100.00
38939;BME280;24211;49.980;19.776;2022-10-31T04:09:50;99771.56;;;9.18;100.00
38939;BME280;24211;49.980;19.776;2022-10-31T04:12:23;99770.31;;;9.14;100.00
38939;BME280;24211;49.980;19.776;2022-10-31T04:15:02;99769.09;;;9.10;100.00
38939;BME280;24211;49.980;19.776;2022-10-31T04:17:39;99770.09;;;9.09;100.00
38939;BME280;24211;49.980;19.776;2022-10-31T04:20:08;99769.47;;;9.07;100.00
38939;BME280;24211;49.980;19.776;2022-10-31T04:22:36;99769.47;;;9.07;100.00
38939;BME280;24211;49.980;19.776;2022-10-31T04:25:03;99778.53;;;9.06;100.00
38939;BME280;24211;49.980;19.776;2022-10-31T04:27:30;99777.88;;;9.04;100.00
38939;BME280;24211;49.980;19.776;2022-10-31T04:29:58;99783.44;;;9.03;100.00
38939;BME280;24211;49.980;19.776;2022-10-31T04:32:26;99780.97;;;9.01;100.00
38939;BME280;24211;49.980;19.776;2022-10-31T04:34:54;99781.38;;;8.98;100.00
38939;BME280;24211;49.980;19.776;2022-10-31T04:37:21;99773.56;;;8.97;100.00
38939;BME280;24211;49.980;19.776;2022-10-31T04:39:49;99777.44;;;8.94;100.00
38939;BME280;24211;49.980;19.776;2022-10-31T04:42:40;99773.16;;;8.93;100.00
38939;BME280;24211;49.980;19.776;2022-10-31T04:45:08;99776.22;;;8.90;100.00
38939;BME280;24211;49.980;19.776;2022-10-31T04:47:36;99778.50;;;8.87;100.00
38939;BME280;24211;49.980;19.776;2022-10-31T04:50:03;99779.72;;;8.84;100.00
38939;BME280;24211;49.980;19.776;2022-10-31T04:52:38;99775.19;;;8.85;100.00
38939;BME280;24211;49.980;19.776;2022-10-31T04:55:07;99785.84;;;8.85;100.00
38939;BME280;24211;49.980;19.776;2022-10-31T04:57:47;99774.97;;;8.80;100.00
38939;BME280;24211;49.980;19.776;2022-10-31T05:00:18;99779.69;;;8.78;100.00
38939;BME280;24211;49.980;19.776;2022-10-31T05:02:51;99784.19;;;8.77;100.00
38939;BME280;24211;49.980;19.776;2022-10-31T05:05:23;99781.34;;;8.72;100.00
38939;BME280;24211;49.980;19.776;2022-10-31T05:07:52;99778.03;;;8.70;100.00
38939;BME280;24211;49.980;19.776;2022-10-31T05:10:29;99788.28;;;8.67;100.00
38939;BME280;24211;49.980;19.776;2022-10-31T05:13:02;99778.84;;;8.64;100.00
38939;BME280;24211;49.980;19.776;2022-10-31T05:15:53;99787.84;;;8.63;100.00
38939;BME280;24211;49.980;19.776;2022-10-31T05:18:53;99785.78;;;8.59;100.00
38939;BME280;24211;49.980;19.776;2022-10-31T05:21:38;99790.69;;;8.55;100.00
38939;BME280;24211;49.980;19.776;2022-10-31T05:24:07;99799.31;;;8.57;100.00
38939;BME280;24211;49.980;19.776;2022-10-31T05:26:35;99792.72;;;8.53;100.00
38939;BME280;24211;49.980;19.776;2022-10-31T05:29:02;99803.81;;;8.50;100.00
38939;BME280;24211;49.980;19.776;2022-10-31T05:31:29;99800.50;;;8.48;100.00
38939;BME280;24211;49.980;19.776;2022-10-31T05:33:57;99800.09;;;8.44;100.00
38939;BME280;24211;49.980;19.776;2022-10-31T05:36:47;99805.22;;;8.46;100.00
38939;BME280;24211;49.980;19.776;2022-10-31T05:39:16;99815.25;;;8.44;100.00
38939;BME280;24211;49.980;19.776;2022-10-31T05:41:47;99804.59;;;8.44;100.00
38939;BME280;24211;49.980;19.776;2022-10-31T05:44:19;99808.25;;;8.43;100.00
38939;BME280;24211;49.980;19.776;2022-10-31T05:46:56;99815.63;;;8.41;100.00
38939;BME280;24211;49.980;19.776;2022-10-31T05:49:42;99819.34;;;8.40;100.00
38939;BME280;24211;49.980;19.776;2022-10-31T05:52:28;99820.34;;;8.39;100.00
38939;BME280;24211;49.980;19.776;2022-10-31T05:55:04;99817.69;;;8.39;100.00
38939;BME280;24211;49.980;19.776;2022-10-31T05:57:32;99824.00;;;8.38;100.00
38939;BME280;24211;49.980;19.776;2022-10-31T06:00:00;99832.00;;;8.38;100.00
38939;BME280;24211;49.980;19.776;2022-10-31T06:02:34;99840.63;;;8.40;100.00
38939;BME280;24211;49.980;19.776;2022-10-31T06:05:20;99838.38;;;8.37;100.00
38939;BME280;24211;49.980;19.776;2022-10-31T06:07:47;99833.88;;;8.37;100.00
38939;BME280;24211;49.980;19.776;2022-10-31T06:10:15;99839.38;;;8.36;100.00
38939;BME280;24211;49.980;19.776;2022-10-31T06:12:44;99841.03;;;8.37;100.00
38939;BME280;24211;49.980;19.776;2022-10-31T06:15:17;99841.03;;;8.37;100.00
38939;BME280;24211;49.980;19.776;2022-10-31T06:18:04;99851.28;;;8.40;100.00
38939;BME280;24211;49.980;19.776;2022-10-31T06:20:36;99856.63;;;8.40;100.00
38939;BME280;24211;49.980;19.776;2022-10-31T06:23:04;99853.53;;;8.43;100.00
38939;BME280;24211;49.980;19.776;2022-10-31T06:25:33;99859.09;;;8.48;100.00
38939;BME280;24211;49.980;19.776;2022-10-31T06:28:00;99865.69;;;8.52;100.00
38939;BME280;24211;49.980;19.776;2022-10-31T06:30:36;99854.63;;;8.55;100.00
38939;BME280;24211;49.980;19.776;2022-10-31T06:33:04;99850.56;;;8.59;100.00
38939;BME280;24211;49.980;19.776;2022-10-31T06:35:35;99859.38;;;8.66;100.00
38939;BME280;24211;49.980;19.776;2022-10-31T06:38:02;99860.63;;;8.70;100.00
38939;BME280;24211;49.980;19.776;2022-10-31T06:40:38;99862.91;;;8.80;100.00
38939;BME280;24211;49.980;19.776;2022-10-31T06:43:20;99860.47;;;8.85;100.00
38939;BME280;24211;49.980;19.776;2022-10-31T06:45:47;99866.66;;;8.92;100.00
38939;BME280;24211;49.980;19.776;2022-10-31T06:48:27;99863.81;;;9.00;100.00
38939;BME280;24211;49.980;19.776;2022-10-31T06:51:19;99859.31;;;9.07;100.00
38939;BME280;24211;49.980;19.776;2022-10-31T06:53:49;99871.84;;;9.19;100.00
38939;BME280;24211;49.980;19.776;2022-10-31T06:56:17;99864.06;;;9.25;100.00
38939;BME280;24211;49.980;19.776;2022-10-31T06:58:48;99863.25;;;9.31;100.00
38939;BME280;24211;49.980;19.776;2022-10-31T07:01:20;99858.75;;;9.38;100.00
38939;BME280;24211;49.980;19.776;2022-10-31T07:03:48;99867.59;;;9.45;100.00
38939;BME280;24211;49.980;19.776;2022-10-31T07:06:15;99868.41;;;9.52;100.00
38939;BME280;24211;49.980;19.776;2022-10-31T07:08:42;99870.88;;;9.60;100.00
38939;BME280;24211;49.980;19.776;2022-10-31T07:11:09;99864.13;;;9.70;100.00
38939;BME280;24211;49.980;19.776;2022-10-31T07:13:38;99869.03;;;9.80;100.00
38939;BME280;24211;49.980;19.776;2022-10-31T07:16:08;99860.63;;;9.90;100.00
38939;BME280;24211;49.980;19.776;2022-10-31T07:18:37;99871.25;;;10.03;100.00
38939;BME280;24211;49.980;19.776;2022-10-31T07:21:05;99868.81;;;10.14;100.00
38939;BME280;24211;49.980;19.776;2022-10-31T07:23:32;99879.47;;;10.27;100.00
38939;BME280;24211;49.980;19.776;2022-10-31T07:26:28;99867.75;;;10.41;100.00
38939;BME280;24211;49.980;19.776;2022-10-31T07:28:56;99873.63;;;10.57;100.00
38939;BME280;24211;49.980;19.776;2022-10-31T07:31:25;99878.94;;;10.70;100.00
38939;BME280;24211;49.980;19.776;2022-10-31T07:33:56;99870.28;;;10.81;100.00
38939;BME280;24211;49.980;19.776;2022-10-31T07:36:26;99876.34;;;10.94;100.00
38939;BME280;24211;49.980;19.776;2022-10-31T07:38:58;99875.47;;;11.07;100.00
38939;BME280;24211;49.980;19.776;2022-10-31T07:41:26;99873.34;;;11.15;100.00
38939;BME280;24211;49.980;19.776;2022-10-31T07:43:53;99879.28;;;11.24;100.00
38939;BME280;24211;49.980;19.776;2022-10-31T07:46:53;99866.19;;;11.97;100.00
38939;BME280;24211;49.980;19.776;2022-10-31T07:49:20;99864.31;;;12.58;100.00
38939;BME280;24211;49.980;19.776;2022-10-31T07:52:07;99863.28;;;12.77;100.00
38939;BME280;24211;49.980;19.776;2022-10-31T07:54:54;99873.75;;;12.97;100.00
38939;BME280;24211;49.980;19.776;2022-10-31T07:57:23;99863.22;;;13.14;100.00
38939;BME280;24211;49.980;19.776;2022-10-31T07:59:51;99860.22;;;13.22;100.00
38939;BME280;24211;49.980;19.776;2022-10-31T08:02:19;99861.00;;;13.10;100.00
38939;BME280;24211;49.980;19.776;2022-10-31T08:04:46;99871.06;;;12.97;100.00
38939;BME280;24211;49.980;19.776;2022-10-31T08:07:42;99867.31;;;12.50;100.00
38939;BME280;24211;49.980;19.776;2022-10-31T08:10:17;99872.41;;;12.33;100.00
38939;BME280;24211;49.980;19.776;2022-10-31T08:12:44;99878.56;;;12.40;100.00
38939;BME280;24211;49.980;19.776;2022-10-31T08:15:12;99879.28;;;12.48;100.00
38939;BME280;24211;49.980;19.776;2022-10-31T08:17:39;99881.16;;;12.65;100.00
38939;BME280;24211;49.980;19.776;2022-10-31T08:20:07;99882.41;;;12.81;100.00
38939;BME280;24211;49.980;19.776;2022-10-31T08:22:42;99882.34;;;12.87;100.00
38939;BME280;24211;49.980;19.776;2022-10-31T08:25:10;99879.13;;;12.97;100.00
38939;BME280;24211;49.980;19.776;2022-10-31T08:27:39;99876.91;;;13.05;100.00
38939;BME280;24211;49.980;19.776;2022-10-31T08:30:14;99877.13;;;13.22;100.00
38939;BME280;24211;49.980;19.776;2022-10-31T08:33:04;99867.72;;;13.31;100.00
38939;BME280;24211;49.980;19.776;2022-10-31T08:36:04;99874.91;;;13.49;100.00
38939;BME280;24211;49.980;19.776;2022-10-31T08:38:48;99878.56;;;13.66;100.00
38939;BME280;24211;49.980;19.776;2022-10-31T08:41:16;99880.88;;;13.74;100.00
38939;BME280;24211;49.980;19.776;2022-10-31T08:43:43;99875.19;;;13.82;100.00
38939;BME280;24211;49.980;19.776;2022-10-31T08:46:12;99881.25;;;13.89;100.00
38939;BME280;24211;49.980;19.776;2022-10-31T08:48:41;99867.25;;;13.99;100.00
38939;BME280;24211;49.980;19.776;2022-10-31T08:51:11;99864.47;;;14.05;100.00
38939;BME280;24211;49.980;19.776;2022-10-31T08:53:38;99867.34;;;14.15;100.00
38939;BME280;24211;49.980;19.776;2022-10-31T08:56:34;99857.66;;;14.26;100.00
38939;BME280;24211;49.980;19.776;2022-10-31T08:59:08;99862.47;;;14.35;100.00
38939;BME280;24211;49.980;19.776;2022-10-31T09:02:13;99863.84;;;14.50;100.00
38939;BME280;24211;49.980;19.776;2022-10-31T09:04:41;99859.41;;;14.67;100.00
38939;BME280;24211;49.980;19.776;2022-10-31T09:07:08;99863.03;;;14.89;100.00
38939;BME280;24211;49.980;19.776;2022-10-31T09:09:53;99866.03;;;15.04;100.00
38939;BME280;24211;49.980;19.776;2022-10-31T09:12:20;99860.38;;;15.17;100.00
38939;BME280;24211;49.980;19.776;2022-10-31T09:15:07;99864.16;;;15.33;100.00
38939;BME280;24211;49.980;19.776;2022-10-31T09:17:48;99862.34;;;15.50;100.00
38939;BME280;24211;49.980;19.776;2022-10-31T09:20:26;99847.25;;;15.65;100.00
38939;BME280;24211;49.980;19.776;2022-10-31T09:23:05;99853.72;;;15.81;100.00
38939;BME280;24211;49.980;19.776;2022-10-31T09:25:36;99854.78;;;15.97;100.00
38939;BME280;24211;49.980;19.776;2022-10-31T09:28:23;99850.31;;;16.07;100.00
38939;BME280;24211;49.980;19.776;2022-10-31T09:30:54;99852.13;;;16.18;100.00
38939;BME280;24211;49.980;19.776;2022-10-31T09:33:41;99848.69;;;16.23;100.00
38939;BME280;24211;49.980;19.776;2022-10-31T09:36:29;99853.22;;;16.39;100.00
38939;BME280;24211;49.980;19.776;2022-10-31T09:38:56;99847.66;;;16.46;100.00
38939;BME280;24211;49.980;19.776;2022-10-31T09:44:49;99846.44;;;16.75;100.00
38939;BME280;24211;49.980;19.776;2022-10-31T09:51:12;99852.88;;;16.95;100.00
38939;BME280;24211;49.980;19.776;2022-10-31T09:54:15;99849.72;;;17.04;100.00
38939;BME280;24211;49.980;19.776;2022-10-31T09:56:44;99853.59;;;17.13;100.00
38939;BME280;24211;49.980;19.776;2022-10-31T09:59:26;99849.38;;;17.22;100.00
38939;BME280;24211;49.980;19.776;2022-10-31T10:02:02;99838.16;;;17.35;100.00
38939;BME280;24211;49.980;19.776;2022-10-31T10:08:09;99851.38;;;17.58;100.00
38939;BME280;24211;49.980;19.776;2022-10-31T10:17:11;99845.75;;;18.01;100.00
38939;BME280;24211;49.980;19.776;2022-10-31T10:20:31;99834.50;;;18.14;100.00
38939;BME280;24211;49.980;19.776;2022-10-31T10:23:43;99833.22;;;18.27;100.00
38939;BME280;24211;49.980;19.776;2022-10-31T10:26:17;99841.78;;;18.56;100.00
38939;BME280;24211;49.980;19.776;2022-10-31T10:28:54;99839.00;;;18.46;100.00
38939;BME280;24211;49.980;19.776;2022-10-31T10:31:30;99829.88;;;18.57;100.00
38939;BME280;24211;49.980;19.776;2022-10-31T10:36:49;99840.78;;;18.72;100.00
38939;BME280;24211;49.980;19.776;2022-10-31T10:39:25;99834.88;;;18.95;100.00
38939;BME280;24211;49.980;19.776;2022-10-31T10:41:57;99831.66;;;18.98;100.00
38939;BME280;24211;49.980;19.776;2022-10-31T10:44:48;99827.88;;;18.94;100.00
38939;BME280;24211;49.980;19.776;2022-10-31T10:47:51;99824.09;;;19.05;100.00
38939;BME280;24211;49.980;19.776;2022-10-31T10:50:36;99821.09;;;19.12;100.00
38939;BME280;24211;49.980;19.776;2022-10-31T10:55:56;99814.94;;;19.36;100.00
38939;BME280;24211;49.980;19.776;2022-10-31T10:58:25;99813.59;;;19.44;100.00
38939;BME280;24211;49.980;19.776;2022-10-31T11:00:54;99820.91;;;19.53;100.00
38939;BME280;24211;49.980;19.776;2022-10-31T11:03:22;99808.97;;;20.00;100.00
38939;BME280;24211;49.980;19.776;2022-10-31T11:05:57;99813.06;;;19.92;100.00
38939;BME280;24211;49.980;19.776;2022-10-31T11:08:32;99802.16;;;20.07;100.00
38939;BME280;24211;49.980;19.776;2022-10-31T11:11:22;99805.66;;;20.18;100.00
38939;BME280;24211;49.980;19.776;2022-10-31T11:14:12;99805.69;;;20.28;100.00
38939;BME280;24211;49.980;19.776;2022-10-31T11:16:45;99803.50;;;20.30;100.00
38939;BME280;24211;49.980;19.776;2022-10-31T11:19:17;99802.94;;;20.33;100.00
38939;BME280;24211;49.980;19.776;2022-10-31T11:21:45;99805.34;;;20.45;100.00
38939;BME280;24211;49.980;19.776;2022-10-31T11:24:24;99794.16;;;20.61;100.00
38939;BME280;24211;49.980;19.776;2022-10-31T11:27:25;99792.53;;;20.60;100.00
38939;BME280;24211;49.980;19.776;2022-10-31T11:29:52;99794.09;;;20.71;100.00
38939;BME280;24211;49.980;19.776;2022-10-31T11:32:30;99794.00;;;20.92;100.00
38939;BME280;24211;49.980;19.776;2022-10-31T11:35:02;99788.50;;;21.02;100.00
38939;BME280;24211;49.980;19.776;2022-10-31T11:37:35;99789.03;;;21.04;100.00
38939;BME280;24211;49.980;19.776;2022-10-31T11:40:19;99787.03;;;21.24;100.00
38939;BME280;24211;49.980;19.776;2022-10-31T11:42:49;99786.13;;;21.34;100.00
38939;BME280;24211;49.980;19.776;2022-10-31T11:45:33;99788.25;;;21.42;100.00
38939;BME280;24211;49.980;19.776;2022-10-31T11:48:15;99779.97;;;21.57;99.50
38939;BME280;24211;49.980;19.776;2022-10-31T11:50:50;99773.34;;;21.68;94.85
38939;BME280;24211;49.980;19.776;2022-10-31T11:53:33;99781.25;;;21.65;96.49
38939;BME280;24211;49.980;19.776;2022-10-31T11:56:14;99773.19;;;21.83;95.47
38939;BME280;24211;49.980;19.776;2022-10-31T11:58:42;99778.78;;;21.97;91.50
38939;BME280;24211;49.980;19.776;2022-10-31T12:01:26;99773.13;;;21.93;94.45
38939;BME280;24211;49.980;19.776;2022-10-31T12:04:06;99770.16;;;21.90;97.99
38939;BME280;24211;49.980;19.776;2022-10-31T12:06:40;99764.41;;;21.96;98.29
38939;BME280;24211;49.980;19.776;2022-10-31T12:09:28;99761.47;;;22.11;95.50
38939;BME280;24211;49.980;19.776;2022-10-31T12:15:19;99758.75;;;22.11;100.00
38939;BME280;24211;49.980;19.776;2022-10-31T12:24:07;99757.47;;;22.51;93.42
38939;BME280;24211;49.980;19.776;2022-10-31T12:29:43;99743.44;;;22.63;89.24
38939;BME280;24211;49.980;19.776;2022-10-31T12:35:40;99749.81;;;22.77;92.38
38939;BME280;24211;49.980;19.776;2022-10-31T12:41:45;99753.06;;;22.79;86.89
38939;BME280;24211;49.980;19.776;2022-10-31T12:44:59;99748.31;;;23.03;89.72
38939;BME280;24211;49.980;19.776;2022-10-31T12:54:13;99737.03;;;23.10;81.73
38939;BME280;24211;49.980;19.776;2022-10-31T12:59:45;99728.19;;;23.18;86.09
38939;BME280;24211;49.980;19.776;2022-10-31T13:02:32;99719.94;;;23.23;83.95
38939;BME280;24211;49.980;19.776;2022-10-31T13:05:41;99718.69;;;23.15;77.64
38939;BME280;24211;49.980;19.776;2022-10-31T13:08:17;99714.63;;;23.13;78.68
38939;BME280;24211;49.980;19.776;2022-10-31T13:10:54;99712.22;;;23.11;76.77
38939;BME280;24211;49.980;19.776;2022-10-31T13:13:42;99718.25;;;23.08;74.86
38939;BME280;24211;49.980;19.776;2022-10-31T13:16:23;99713.97;;;23.02;76.25
38939;BME280;24211;49.980;19.776;2022-10-31T13:18:58;99727.19;;;22.95;78.24
38939;BME280;24211;49.980;19.776;2022-10-31T13:21:37;99722.84;;;22.94;77.89
38939;BME280;24211;49.980;19.776;2022-10-31T13:24:18;99728.31;;;22.94;77.74
38939;BME280;24211;49.980;19.776;2022-10-31T13:26:54;99717.16;;;22.91;73.70
38939;BME280;24211;49.980;19.776;2022-10-31T13:29:32;99723.81;;;22.85;77.38
38939;BME280;24211;49.980;19.776;2022-10-31T13:32:04;99714.91;;;22.79;77.10
38939;BME280;24211;49.980;19.776;2022-10-31T13:34:52;99719.97;;;22.67;83.43
38939;BME280;24211;49.980;19.776;2022-10-31T13:37:57;99720.59;;;22.59;83.13
38939;BME280;24211;49.980;19.776;2022-10-31T13:40:58;99714.59;;;22.62;81.49
38939;BME280;24211;49.980;19.776;2022-10-31T13:46:25;99712.38;;;22.64;77.38
38939;BME280;24211;49.980;19.776;2022-10-31T13:48:52;99706.97;;;22.59;79.29
38939;BME280;24211;49.980;19.776;2022-10-31T13:51:32;99718.53;;;22.51;73.79
38939;BME280;24211;49.980;19.776;2022-10-31T13:54:20;99713.13;;;22.46;76.65
38939;BME280;24211;49.980;19.776;2022-10-31T13:56:52;99707.78;;;22.41;78.54
38939;BME280;24211;49.980;19.776;2022-10-31T13:59:25;99709.53;;;22.32;75.38
38939;BME280;24211;49.980;19.776;2022-10-31T14:02:13;99707.44;;;22.24;77.15
38939;BME280;24211;49.980;19.776;2022-10-31T14:04:56;99702.94;;;22.14;80.10
38939;BME280;24211;49.980;19.776;2022-10-31T14:07:26;99709.56;;;22.08;80.60
38939;BME280;24211;49.980;19.776;2022-10-31T14:10:04;99706.06;;;22.02;83.27
38939;BME280;24211;49.980;19.776;2022-10-31T14:12:42;99705.03;;;21.98;83.04
38939;BME280;24211;49.980;19.776;2022-10-31T14:15:22;99697.75;;;21.94;82.74
38939;BME280;24211;49.980;19.776;2022-10-31T14:17:52;99699.72;;;21.88;85.33
38939;BME280;24211;49.980;19.776;2022-10-31T14:20:41;99701.41;;;21.79;85.47
38939;BME280;24211;49.980;19.776;2022-10-31T14:26:29;99705.06;;;21.65;90.73
38939;BME280;24211;49.980;19.776;2022-10-31T14:29:23;99701.38;;;21.56;96.78
38939;BME280;24211;49.980;19.776;2022-10-31T14:31:55;99694.66;;;21.48;97.30
38939;BME280;24211;49.980;19.776;2022-10-31T14:34:53;99703.16;;;21.41;100.00
38939;BME280;24211;49.980;19.776;2022-10-31T14:43:45;99695.97;;;21.22;100.00
38939;BME280;24211;49.980;19.776;2022-10-31T14:46:47;99697.69;;;21.13;100.00
38939;BME280;24211;49.980;19.776;2022-10-31T14:52:17;99690.72;;;20.97;100.00
38939;BME280;24211;49.980;19.776;2022-10-31T14:54:53;99699.44;;;20.88;100.00
38939;BME280;24211;49.980;19.776;2022-10-31T14:57:31;99691.94;;;20.80;100.00
38939;BME280;24211;49.980;19.776;2022-10-31T15:00:07;99694.16;;;20.73;100.00
38939;BME280;24211;49.980;19.776;2022-10-31T15:02:50;99694.75;;;20.65;100.00
38939;BME280;24211;49.980;19.776;2022-10-31T15:05:21;99700.75;;;20.57;100.00
38939;BME280;24211;49.980;19.776;2022-10-31T15:07:57;99697.00;;;20.48;100.00
38939;BME280;24211;49.980;19.776;2022-10-31T15:10:30;99694.88;;;20.40;100.00
38939;BME280;24211;49.980;19.776;2022-10-31T15:13:19;99694.09;;;20.30;100.00
38939;BME280;24211;49.980;19.776;2022-10-31T15:15:51;99703.06;;;20.20;100.00
38939;BME280;24211;49.980;19.776;2022-10-31T15:18:25;99697.44;;;20.11;100.00